sensor_id;sensor_type;location;lat;lon;timestamp;P1;durP1;ratioP1;P2;durP2;ratioP2
13868;SDS011;7004;48.206;16.402;2022-12-07T00:01:33;12.90;;;10.30;;
13868;SDS011;7004;48.206;16.402;2022-12-07T00:04:04;12.93;;;9.40;;
13868;SDS011;7004;48.206;16.402;2022-12-07T00:09:07;13.50;;;10.10;;
13868;SDS011;7004;48.206;16.402;2022-12-07T00:11:41;14.03;;;8.90;;
13868;SDS011;7004;48.206;16.402;2022-12-07T00:14:13;11.80;;;9.27;;
13868;SDS011;7004;48.206;16.402;2022-12-07T00:16:42;11.77;;;9.20;;
13868;SDS011;7004;48.206;16.402;2022-12-07T00:19:10;12.30;;;9.33;;
13868;SDS011;7004;48.206;16.402;2022-12-07T00:21:38;12.83;;;9.40;;
13868;SDS011;7004;48.206;16.402;2022-12-07T00:24:05;11.97;;;9.47;;
13868;SDS011;7004;48.206;16.402;2022-12-07T00:26:34;14.23;;;10.13;;
13868;SDS011;7004;48.206;16.402;2022-12-07T00:29:03;12.37;;;10.10;;
13868;SDS011;7004;48.206;16.402;2022-12-07T00:31:38;14.30;;;9.50;;
13868;SDS011;7004;48.206;16.402;2022-12-07T00:34:05;10.80;;;9.00;;
13868;SDS011;7004;48.206;16.402;2022-12-07T00:36:36;12.43;;;9.77;;
13868;SDS011;7004;48.206;16.402;2022-12-07T00:39:03;11.93;;;9.53;;
13868;SDS011;7004;48.206;16.402;2022-12-07T00:41:29;14.80;;;10.10;;
13868;SDS011;7004;48.206;16.402;2022-12-07T00:43:56;13.07;;;10.40;;
13868;SDS011;7004;48.206;16.402;2022-12-07T00:46:24;12.47;;;9.80;;
13868;SDS011;7004;48.206;16.402;2022-12-07T00:48:52;13.83;;;10.97;;
13868;SDS011;7004;48.206;16.402;2022-12-07T00:51:20;15.23;;;11.20;;
13868;SDS011;7004;48.206;16.402;2022-12-07T00:53:49;15.53;;;10.70;;
13868;SDS011;7004;48.206;16.402;2022-12-07T00:56:17;17.13;;;11.10;;
13868;SDS011;7004;48.206;16.402;2022-12-07T01:01:21;15.77;;;11.23;;
13868;SDS011;7004;48.206;16.402;2022-12-07T01:03:50;14.10;;;10.97;;
13868;SDS011;7004;48.206;16.402;2022-12-07T01:06:24;14.23;;;11.67;;
13868;SDS011;7004;48.206;16.402;2022-12-07T01:09:03;16.23;;;12.33;;
13868;SDS011;7004;48.206;16.402;2022-12-07T01:11:38;13.43;;;11.33;;
13868;SDS011;7004;48.206;16.402;2022-12-07T01:14:11;15.90;;;12.23;;
13868;SDS011;7004;48.206;16.402;2022-12-07T01:16:42;16.50;;;12.20;;
13868;SDS011;7004;48.206;16.402;2022-12-07T01:19:13;16.10;;;13.07;;
13868;SDS011;7004;48.206;16.402;2022-12-07T01:21:42;16.17;;;12.80;;
13868;SDS011;7004;48.206;16.402;2022-12-07T01:24:15;15.63;;;12.67;;
13868;SDS011;7004;48.206;16.402;2022-12-07T01:26:43;15.87;;;12.93;;
13868;SDS011;7004;48.206;16.402;2022-12-07T01:29:18;18.83;;;12.20;;
13868;SDS011;7004;48.206;16.402;2022-12-07T01:31:52;19.80;;;13.00;;
13868;SDS011;7004;48.206;16.402;2022-12-07T01:34:22;17.17;;;12.93;;
13868;SDS011;7004;48.206;16.402;2022-12-07T01:36:53;18.90;;;12.97;;
13868;SDS011;7004;48.206;16.402;2022-12-07T01:39:21;15.77;;;12.87;;
13868;SDS011;7004;48.206;16.402;2022-12-07T01:41:52;17.33;;;13.07;;
13868;SDS011;7004;48.206;16.402;2022-12-07T01:44:26;19.37;;;13.90;;
13868;SDS011;7004;48.206;16.402;2022-12-07T01:47:04;18.07;;;13.33;;
13868;SDS011;7004;48.206;16.402;2022-12-07T01:49:36;16.57;;;13.37;;
13868;SDS011;7004;48.206;16.402;2022-12-07T01:52:20;18.30;;;13.97;;
13868;SDS011;7004;48.206;16.402;2022-12-07T01:55:03;17.63;;;13.87;;
13868;SDS011;7004;48.206;16.402;2022-12-07T01:57:39;17.70;;;13.90;;
13868;SDS011;7004;48.206;16.402;2022-12-07T02:00:13;17.10;;;13.70;;
13868;SDS011;7004;48.206;16.402;2022-12-07T02:02:56;18.53;;;13.53;;
13868;SDS011;7004;48.206;16.402;2022-12-07T02:05:44;17.97;;;12.87;;
13868;SDS011;7004;48.206;16.402;2022-12-07T02:08:13;19.43;;;14.30;;
13868;SDS011;7004;48.206;16.402;2022-12-07T02:10:40;17.33;;;13.97;;
13868;SDS011;7004;48.206;16.402;2022-12-07T02:13:10;16.87;;;13.27;;
13868;SDS011;7004;48.206;16.402;2022-12-07T02:18:52;18.60;;;14.43;;
13868;SDS011;7004;48.206;16.402;2022-12-07T02:24:45;20.10;;;14.33;;
13868;SDS011;7004;48.206;16.402;2022-12-07T02:30:17;17.47;;;13.27;;
13868;SDS011;7004;48.206;16.402;2022-12-07T02:32:55;17.43;;;13.63;;
13868;SDS011;7004;48.206;16.402;2022-12-07T02:38:03;19.60;;;13.70;;
13868;SDS011;7004;48.206;16.402;2022-12-07T02:40:53;16.10;;;12.43;;
13868;SDS011;7004;48.206;16.402;2022-12-07T02:44:18;18.47;;;12.80;;
13868;SDS011;7004;48.206;16.402;2022-12-07T02:46:30;17.53;;;12.57;;
13868;SDS011;7004;48.206;16.402;2022-12-07T02:49:03;16.77;;;12.70;;
13868;SDS011;7004;48.206;16.402;2022-12-07T02:51:33;18.70;;;13.03;;
13868;SDS011;7004;48.206;16.402;2022-12-07T02:54:07;16.53;;;12.93;;
13868;SDS011;7004;48.206;16.402;2022-12-07T03:12:05;17.73;;;12.67;;
13868;SDS011;7004;48.206;16.402;2022-12-07T03:14:16;16.83;;;11.97;;
13868;SDS011;7004;48.206;16.402;2022-12-07T03:16:56;17.23;;;12.83;;
13868;SDS011;7004;48.206;16.402;2022-12-07T03:19:32;16.80;;;11.47;;
13868;SDS011;7004;48.206;16.402;2022-12-07T03:22:01;18.03;;;12.60;;
13868;SDS011;7004;48.206;16.402;2022-12-07T03:24:37;15.83;;;11.63;;
13868;SDS011;7004;48.206;16.402;2022-12-07T03:27:17;16.77;;;12.63;;
13868;SDS011;7004;48.206;16.402;2022-12-07T03:32:25;17.47;;;12.50;;
13868;SDS011;7004;48.206;16.402;2022-12-07T03:37:42;14.67;;;11.00;;
13868;SDS011;7004;48.206;16.402;2022-12-07T03:40:32;17.90;;;12.57;;
13868;SDS011;7004;48.206;16.402;2022-12-07T03:43:31;17.23;;;12.70;;
13868;SDS011;7004;48.206;16.402;2022-12-07T03:49:04;17.27;;;12.20;;
13868;SDS011;7004;48.206;16.402;2022-12-07T03:54:51;16.10;;;12.00;;
13868;SDS011;7004;48.206;16.402;2022-12-07T03:57:33;17.43;;;12.03;;
13868;SDS011;7004;48.206;16.402;2022-12-07T04:00:02;16.37;;;12.33;;
13868;SDS011;7004;48.206;16.402;2022-12-07T04:02:33;16.70;;;11.63;;
13868;SDS011;7004;48.206;16.402;2022-12-07T04:04:59;16.27;;;11.60;;
13868;SDS011;7004;48.206;16.402;2022-12-07T04:07:27;16.73;;;11.13;;
13868;SDS011;7004;48.206;16.402;2022-12-07T04:09:53;17.93;;;11.23;;
13868;SDS011;7004;48.206;16.402;2022-12-07T04:12:20;14.20;;;10.80;;
13868;SDS011;7004;48.206;16.402;2022-12-07T04:14:47;15.00;;;10.83;;
13868;SDS011;7004;48.206;16.402;2022-12-07T04:17:13;14.33;;;10.10;;
13868;SDS011;7004;48.206;16.402;2022-12-07T04:19:39;13.73;;;10.63;;
13868;SDS011;7004;48.206;16.402;2022-12-07T04:22:06;15.47;;;10.80;;
13868;SDS011;7004;48.206;16.402;2022-12-07T04:24:33;14.87;;;11.07;;
13868;SDS011;7004;48.206;16.402;2022-12-07T04:27:00;14.33;;;10.87;;
13868;SDS011;7004;48.206;16.402;2022-12-07T04:29:27;13.80;;;10.63;;
13868;SDS011;7004;48.206;16.402;2022-12-07T04:31:54;14.17;;;10.40;;
13868;SDS011;7004;48.206;16.402;2022-12-07T04:34:21;13.43;;;10.33;;
13868;SDS011;7004;48.206;16.402;2022-12-07T04:36:49;14.87;;;10.60;;
13868;SDS011;7004;48.206;16.402;2022-12-07T04:39:28;14.00;;;10.10;;
13868;SDS011;7004;48.206;16.402;2022-12-07T04:41:58;14.80;;;10.33;;
13868;SDS011;7004;48.206;16.402;2022-12-07T04:44:27;13.43;;;10.33;;
13868;SDS011;7004;48.206;16.402;2022-12-07T04:46:56;15.30;;;10.17;;
13868;SDS011;7004;48.206;16.402;2022-12-07T04:49:22;13.57;;;10.00;;
13868;SDS011;7004;48.206;16.402;2022-12-07T04:51:49;12.57;;;9.63;;
13868;SDS011;7004;48.206;16.402;2022-12-07T04:54:16;14.30;;;10.03;;
13868;SDS011;7004;48.206;16.402;2022-12-07T04:56:43;12.27;;;9.40;;
13868;SDS011;7004;48.206;16.402;2022-12-07T04:59:11;13.10;;;9.40;;
13868;SDS011;7004;48.206;16.402;2022-12-07T05:01:39;13.23;;;9.57;;
13868;SDS011;7004;48.206;16.402;2022-12-07T05:04:05;12.43;;;9.43;;
13868;SDS011;7004;48.206;16.402;2022-12-07T05:06:32;12.77;;;9.30;;
13868;SDS011;7004;48.206;16.402;2022-12-07T05:08:58;14.37;;;9.57;;
13868;SDS011;7004;48.206;16.402;2022-12-07T05:11:26;13.60;;;9.60;;
13868;SDS011;7004;48.206;16.402;2022-12-07T05:14:09;11.80;;;9.17;;
13868;SDS011;7004;48.206;16.402;2022-12-07T05:16:47;11.90;;;8.80;;
13868;SDS011;7004;48.206;16.402;2022-12-07T05:19:16;11.17;;;8.97;;
13868;SDS011;7004;48.206;16.402;2022-12-07T05:21:43;12.00;;;9.10;;
13868;SDS011;7004;48.206;16.402;2022-12-07T05:24:11;13.30;;;9.67;;
13868;SDS011;7004;48.206;16.402;2022-12-07T05:26:38;11.13;;;8.67;;
13868;SDS011;7004;48.206;16.402;2022-12-07T05:29:05;12.30;;;8.93;;
13868;SDS011;7004;48.206;16.402;2022-12-07T05:31:32;12.10;;;9.10;;
13868;SDS011;7004;48.206;16.402;2022-12-07T05:34:00;11.30;;;9.17;;
13868;SDS011;7004;48.206;16.402;2022-12-07T05:36:26;12.37;;;9.03;;
13868;SDS011;7004;48.206;16.402;2022-12-07T05:38:53;12.10;;;8.93;;
13868;SDS011;7004;48.206;16.402;2022-12-07T05:41:20;10.70;;;8.00;;
13868;SDS011;7004;48.206;16.402;2022-12-07T05:44:06;13.57;;;9.27;;
13868;SDS011;7004;48.206;16.402;2022-12-07T05:46:32;12.73;;;8.37;;
13868;SDS011;7004;48.206;16.402;2022-12-07T05:49:00;11.50;;;8.27;;
13868;SDS011;7004;48.206;16.402;2022-12-07T05:51:28;11.47;;;8.90;;
13868;SDS011;7004;48.206;16.402;2022-12-07T05:53:54;11.23;;;7.70;;
13868;SDS011;7004;48.206;16.402;2022-12-07T05:56:22;14.70;;;9.03;;
13868;SDS011;7004;48.206;16.402;2022-12-07T05:58:49;12.40;;;8.47;;
13868;SDS011;7004;48.206;16.402;2022-12-07T06:01:34;12.17;;;8.67;;
13868;SDS011;7004;48.206;16.402;2022-12-07T06:04:00;11.33;;;8.10;;
13868;SDS011;7004;48.206;16.402;2022-12-07T06:06:27;11.67;;;8.10;;
13868;SDS011;7004;48.206;16.402;2022-12-07T06:08:53;9.73;;;7.80;;
13868;SDS011;7004;48.206;16.402;2022-12-07T06:11:19;9.63;;;7.60;;
13868;SDS011;7004;48.206;16.402;2022-12-07T06:14:04;10.03;;;7.40;;
13868;SDS011;7004;48.206;16.402;2022-12-07T06:16:30;10.77;;;7.10;;
13868;SDS011;7004;48.206;16.402;2022-12-07T06:18:56;9.77;;;7.50;;
13868;SDS011;7004;48.206;16.402;2022-12-07T06:21:22;10.60;;;7.83;;
13868;SDS011;7004;48.206;16.402;2022-12-07T06:23:48;9.90;;;7.33;;
13868;SDS011;7004;48.206;16.402;2022-12-07T06:26:14;8.83;;;6.57;;
13868;SDS011;7004;48.206;16.402;2022-12-07T06:28:40;8.60;;;7.20;;
13868;SDS011;7004;48.206;16.402;2022-12-07T06:31:06;9.87;;;7.53;;
13868;SDS011;7004;48.206;16.402;2022-12-07T06:33:34;9.77;;;7.27;;
13868;SDS011;7004;48.206;16.402;2022-12-07T06:36:00;10.43;;;7.90;;
13868;SDS011;7004;48.206;16.402;2022-12-07T06:38:26;11.57;;;7.50;;
13868;SDS011;7004;48.206;16.402;2022-12-07T06:40:53;12.77;;;7.50;;
13868;SDS011;7004;48.206;16.402;2022-12-07T06:43:19;11.30;;;8.53;;
13868;SDS011;7004;48.206;16.402;2022-12-07T06:45:45;9.67;;;7.63;;
13868;SDS011;7004;48.206;16.402;2022-12-07T06:48:11;10.73;;;7.77;;
13868;SDS011;7004;48.206;16.402;2022-12-07T06:50:37;10.27;;;7.63;;
13868;SDS011;7004;48.206;16.402;2022-12-07T06:53:03;10.03;;;7.23;;
13868;SDS011;7004;48.206;16.402;2022-12-07T06:55:29;9.63;;;7.10;;
13868;SDS011;7004;48.206;16.402;2022-12-07T06:57:55;9.33;;;7.23;;
13868;SDS011;7004;48.206;16.402;2022-12-07T07:00:22;10.97;;;7.43;;
13868;SDS011;7004;48.206;16.402;2022-12-07T07:02:48;12.50;;;8.13;;
13868;SDS011;7004;48.206;16.402;2022-12-07T07:05:14;10.87;;;7.13;;
13868;SDS011;7004;48.206;16.402;2022-12-07T07:07:41;10.57;;;7.87;;
13868;SDS011;7004;48.206;16.402;2022-12-07T07:10:07;8.90;;;7.27;;
13868;SDS011;7004;48.206;16.402;2022-12-07T07:12:35;9.77;;;6.80;;
13868;SDS011;7004;48.206;16.402;2022-12-07T07:15:01;10.70;;;7.20;;
13868;SDS011;7004;48.206;16.402;2022-12-07T07:17:27;10.77;;;7.17;;
13868;SDS011;7004;48.206;16.402;2022-12-07T07:19:53;12.77;;;7.50;;
13868;SDS011;7004;48.206;16.402;2022-12-07T07:22:19;8.73;;;6.60;;
13868;SDS011;7004;48.206;16.402;2022-12-07T07:24:45;13.90;;;7.60;;
13868;SDS011;7004;48.206;16.402;2022-12-07T07:27:11;13.23;;;8.07;;
13868;SDS011;7004;48.206;16.402;2022-12-07T07:29:37;11.73;;;7.90;;
13868;SDS011;7004;48.206;16.402;2022-12-07T07:32:03;15.03;;;7.60;;
13868;SDS011;7004;48.206;16.402;2022-12-07T07:34:29;10.20;;;6.90;;
13868;SDS011;7004;48.206;16.402;2022-12-07T07:36:56;12.57;;;7.10;;
13868;SDS011;7004;48.206;16.402;2022-12-07T07:39:22;13.57;;;8.20;;
13868;SDS011;7004;48.206;16.402;2022-12-07T07:41:48;10.87;;;7.17;;
13868;SDS011;7004;48.206;16.402;2022-12-07T07:44:14;12.27;;;7.10;;
13868;SDS011;7004;48.206;16.402;2022-12-07T07:46:40;12.23;;;6.80;;
13868;SDS011;7004;48.206;16.402;2022-12-07T07:49:06;7.97;;;6.90;;
13868;SDS011;7004;48.206;16.402;2022-12-07T07:51:32;8.47;;;6.57;;
13868;SDS011;7004;48.206;16.402;2022-12-07T07:53:58;11.30;;;7.63;;
13868;SDS011;7004;48.206;16.402;2022-12-07T07:56:24;10.60;;;7.80;;
13868;SDS011;7004;48.206;16.402;2022-12-07T07:58:53;10.23;;;7.20;;
13868;SDS011;7004;48.206;16.402;2022-12-07T08:01:20;11.50;;;7.07;;
13868;SDS011;7004;48.206;16.402;2022-12-07T08:03:46;12.17;;;6.93;;
13868;SDS011;7004;48.206;16.402;2022-12-07T08:06:13;8.77;;;6.53;;
13868;SDS011;7004;48.206;16.402;2022-12-07T08:08:39;11.13;;;7.37;;
13868;SDS011;7004;48.206;16.402;2022-12-07T08:11:05;9.83;;;7.00;;
13868;SDS011;7004;48.206;16.402;2022-12-07T08:13:33;8.27;;;6.20;;
13868;SDS011;7004;48.206;16.402;2022-12-07T08:16:04;8.97;;;6.57;;
13868;SDS011;7004;48.206;16.402;2022-12-07T08:18:37;8.20;;;6.70;;
13868;SDS011;7004;48.206;16.402;2022-12-07T08:21:06;9.20;;;7.00;;
13868;SDS011;7004;48.206;16.402;2022-12-07T08:23:35;9.70;;;6.50;;
13868;SDS011;7004;48.206;16.402;2022-12-07T08:26:02;9.83;;;7.73;;
13868;SDS011;7004;48.206;16.402;2022-12-07T08:28:30;11.20;;;6.67;;
13868;SDS011;7004;48.206;16.402;2022-12-07T08:31:01;8.53;;;6.40;;
13868;SDS011;7004;48.206;16.402;2022-12-07T08:33:32;8.33;;;6.57;;
13868;SDS011;7004;48.206;16.402;2022-12-07T08:36:03;8.73;;;6.97;;
13868;SDS011;7004;48.206;16.402;2022-12-07T08:38:35;7.63;;;6.13;;
13868;SDS011;7004;48.206;16.402;2022-12-07T08:41:03;7.90;;;6.23;;
13868;SDS011;7004;48.206;16.402;2022-12-07T08:43:29;8.80;;;6.27;;
13868;SDS011;7004;48.206;16.402;2022-12-07T08:49:04;8.30;;;6.40;;
13868;SDS011;7004;48.206;16.402;2022-12-07T08:51:39;7.43;;;6.27;;
13868;SDS011;7004;48.206;16.402;2022-12-07T08:54:07;7.30;;;6.27;;
13868;SDS011;7004;48.206;16.402;2022-12-07T08:56:38;7.10;;;6.20;;
13868;SDS011;7004;48.206;16.402;2022-12-07T08:59:05;8.07;;;5.90;;
13868;SDS011;7004;48.206;16.402;2022-12-07T09:01:33;8.33;;;6.40;;
13868;SDS011;7004;48.206;16.402;2022-12-07T09:03:59;8.40;;;7.00;;
13868;SDS011;7004;48.206;16.402;2022-12-07T09:06:25;8.40;;;6.63;;
13868;SDS011;7004;48.206;16.402;2022-12-07T09:08:53;7.20;;;6.07;;
13868;SDS011;7004;48.206;16.402;2022-12-07T09:11:24;7.20;;;6.30;;
13868;SDS011;7004;48.206;16.402;2022-12-07T09:13:50;7.97;;;6.10;;
13868;SDS011;7004;48.206;16.402;2022-12-07T09:16:16;8.60;;;5.37;;
13868;SDS011;7004;48.206;16.402;2022-12-07T09:18:42;6.83;;;6.10;;
13868;SDS011;7004;48.206;16.402;2022-12-07T09:21:09;7.23;;;6.47;;
13868;SDS011;7004;48.206;16.402;2022-12-07T09:23:35;6.03;;;5.43;;
13868;SDS011;7004;48.206;16.402;2022-12-07T09:26:01;10.17;;;6.43;;
13868;SDS011;7004;48.206;16.402;2022-12-07T09:28:30;8.57;;;5.97;;
13868;SDS011;7004;48.206;16.402;2022-12-07T09:30:57;7.03;;;5.80;;
13868;SDS011;7004;48.206;16.402;2022-12-07T09:33:24;6.40;;;5.70;;
13868;SDS011;7004;48.206;16.402;2022-12-07T09:35:51;7.30;;;5.70;;
13868;SDS011;7004;48.206;16.402;2022-12-07T09:38:18;7.93;;;6.03;;
13868;SDS011;7004;48.206;16.402;2022-12-07T09:40:45;9.93;;;6.73;;
13868;SDS011;7004;48.206;16.402;2022-12-07T09:43:13;8.80;;;6.80;;
13868;SDS011;7004;48.206;16.402;2022-12-07T09:45:52;7.23;;;6.13;;
13868;SDS011;7004;48.206;16.402;2022-12-07T09:51:20;7.97;;;5.80;;
13868;SDS011;7004;48.206;16.402;2022-12-07T09:53:48;10.67;;;6.33;;
13868;SDS011;7004;48.206;16.402;2022-12-07T09:56:16;7.33;;;6.20;;
13868;SDS011;7004;48.206;16.402;2022-12-07T09:58:45;8.83;;;6.70;;
13868;SDS011;7004;48.206;16.402;2022-12-07T10:03:42;7.40;;;6.60;;
13868;SDS011;7004;48.206;16.402;2022-12-07T10:06:24;7.70;;;6.90;;
13868;SDS011;7004;48.206;16.402;2022-12-07T10:08:50;7.50;;;6.53;;
13868;SDS011;7004;48.206;16.402;2022-12-07T10:11:16;8.33;;;7.47;;
13868;SDS011;7004;48.206;16.402;2022-12-07T10:13:49;7.57;;;6.70;;
13868;SDS011;7004;48.206;16.402;2022-12-07T10:24:40;7.10;;;6.23;;
13868;SDS011;7004;48.206;16.402;2022-12-07T10:27:19;7.53;;;6.13;;
13868;SDS011;7004;48.206;16.402;2022-12-07T10:29:58;6.60;;;5.93;;
13868;SDS011;7004;48.206;16.402;2022-12-07T10:32:34;6.30;;;5.63;;
13868;SDS011;7004;48.206;16.402;2022-12-07T10:37:51;6.10;;;5.50;;
13868;SDS011;7004;48.206;16.402;2022-12-07T10:51:12;6.50;;;5.20;;
13868;SDS011;7004;48.206;16.402;2022-12-07T11:08:46;7.40;;;6.20;;
13868;SDS011;7004;48.206;16.402;2022-12-07T11:14:28;7.27;;;5.63;;
13868;SDS011;7004;48.206;16.402;2022-12-07T11:19:47;9.10;;;6.30;;
13868;SDS011;7004;48.206;16.402;2022-12-07T11:26:17;7.87;;;6.10;;
13868;SDS011;7004;48.206;16.402;2022-12-07T11:38:18;7.57;;;5.77;;
13868;SDS011;7004;48.206;16.402;2022-12-07T11:40:53;7.70;;;5.80;;
13868;SDS011;7004;48.206;16.402;2022-12-07T11:43:40;9.03;;;5.93;;
13868;SDS011;7004;48.206;16.402;2022-12-07T11:46:27;7.90;;;5.70;;
13868;SDS011;7004;48.206;16.402;2022-12-07T11:49:23;7.83;;;6.10;;
13868;SDS011;7004;48.206;16.402;2022-12-07T11:52:17;6.57;;;5.87;;
13868;SDS011;7004;48.206;16.402;2022-12-07T11:54:51;7.93;;;5.67;;
13868;SDS011;7004;48.206;16.402;2022-12-07T11:57:27;7.43;;;5.33;;
13868;SDS011;7004;48.206;16.402;2022-12-07T12:00:05;7.83;;;5.50;;
13868;SDS011;7004;48.206;16.402;2022-12-07T12:02:54;5.83;;;5.13;;
13868;SDS011;7004;48.206;16.402;2022-12-07T12:05:34;5.93;;;5.33;;
13868;SDS011;7004;48.206;16.402;2022-12-07T12:08:10;6.50;;;5.20;;
13868;SDS011;7004;48.206;16.402;2022-12-07T12:10:56;6.27;;;5.67;;
13868;SDS011;7004;48.206;16.402;2022-12-07T12:22:20;5.67;;;5.03;;
13868;SDS011;7004;48.206;16.402;2022-12-07T12:24:54;6.87;;;5.53;;
13868;SDS011;7004;48.206;16.402;2022-12-07T12:27:23;9.37;;;5.80;;
13868;SDS011;7004;48.206;16.402;2022-12-07T12:29:58;5.93;;;5.33;;
13868;SDS011;7004;48.206;16.402;2022-12-07T12:38:21;9.07;;;5.50;;
13868;SDS011;7004;48.206;16.402;2022-12-07T12:40:58;6.30;;;5.37;;
13868;SDS011;7004;48.206;16.402;2022-12-07T12:56:59;7.73;;;6.23;;
13868;SDS011;7004;48.206;16.402;2022-12-07T12:59:32;9.10;;;6.00;;
13868;SDS011;7004;48.206;16.402;2022-12-07T13:04:59;6.93;;;5.93;;
13868;SDS011;7004;48.206;16.402;2022-12-07T13:10:39;11.33;;;6.47;;
13868;SDS011;7004;48.206;16.402;2022-12-07T13:28:58;9.10;;;7.43;;
13868;SDS011;7004;48.206;16.402;2022-12-07T13:37:24;8.90;;;7.13;;
13868;SDS011;7004;48.206;16.402;2022-12-07T13:39:57;8.13;;;6.20;;
13868;SDS011;7004;48.206;16.402;2022-12-07T13:42:27;8.37;;;6.57;;
13868;SDS011;7004;48.206;16.402;2022-12-07T13:45:00;7.73;;;6.63;;
13868;SDS011;7004;48.206;16.402;2022-12-07T13:48:32;10.33;;;6.57;;
13868;SDS011;7004;48.206;16.402;2022-12-07T13:51:21;9.07;;;6.70;;
13868;SDS011;7004;48.206;16.402;2022-12-07T13:53:55;7.93;;;6.60;;
13868;SDS011;7004;48.206;16.402;2022-12-07T13:56:35;7.93;;;6.80;;
13868;SDS011;7004;48.206;16.402;2022-12-07T13:59:02;10.07;;;7.10;;
13868;SDS011;7004;48.206;16.402;2022-12-07T14:01:31;8.23;;;6.77;;
13868;SDS011;7004;48.206;16.402;2022-12-07T14:06:53;8.27;;;6.97;;
13868;SDS011;7004;48.206;16.402;2022-12-07T14:11:48;13.30;;;7.27;;
13868;SDS011;7004;48.206;16.402;2022-12-07T14:14:18;10.63;;;7.50;;
13868;SDS011;7004;48.206;16.402;2022-12-07T14:19:43;10.23;;;7.50;;
13868;SDS011;7004;48.206;16.402;2022-12-07T14:22:26;10.53;;;8.07;;
13868;SDS011;7004;48.206;16.402;2022-12-07T14:25:13;11.90;;;7.77;;
13868;SDS011;7004;48.206;16.402;2022-12-07T14:30:18;10.93;;;8.87;;
13868;SDS011;7004;48.206;16.402;2022-12-07T14:32:44;9.57;;;7.30;;
13868;SDS011;7004;48.206;16.402;2022-12-07T14:35:17;12.43;;;7.87;;
13868;SDS011;7004;48.206;16.402;2022-12-07T14:37:45;12.67;;;8.07;;
13868;SDS011;7004;48.206;16.402;2022-12-07T14:40:14;10.67;;;7.83;;
13868;SDS011;7004;48.206;16.402;2022-12-07T14:42:44;11.60;;;7.83;;
13868;SDS011;7004;48.206;16.402;2022-12-07T14:45:18;11.30;;;8.17;;
13868;SDS011;7004;48.206;16.402;2022-12-07T14:47:46;10.47;;;8.10;;
13868;SDS011;7004;48.206;16.402;2022-12-07T14:50:15;10.83;;;7.67;;
13868;SDS011;7004;48.206;16.402;2022-12-07T14:52:44;10.07;;;7.90;;
13868;SDS011;7004;48.206;16.402;2022-12-07T14:55:23;10.90;;;8.07;;
13868;SDS011;7004;48.206;16.402;2022-12-07T14:57:52;10.83;;;8.00;;
13868;SDS011;7004;48.206;16.402;2022-12-07T15:00:23;11.47;;;8.47;;
13868;SDS011;7004;48.206;16.402;2022-12-07T15:02:51;8.83;;;7.10;;
13868;SDS011;7004;48.206;16.402;2022-12-07T15:05:18;9.33;;;7.60;;
13868;SDS011;7004;48.206;16.402;2022-12-07T15:07:45;11.83;;;9.10;;
13868;SDS011;7004;48.206;16.402;2022-12-07T15:10:20;11.40;;;8.67;;
13868;SDS011;7004;48.206;16.402;2022-12-07T15:12:57;10.67;;;8.50;;
13868;SDS011;7004;48.206;16.402;2022-12-07T15:15:43;12.60;;;8.80;;
13868;SDS011;7004;48.206;16.402;2022-12-07T15:18:08;11.40;;;8.60;;
13868;SDS011;7004;48.206;16.402;2022-12-07T15:20:34;10.73;;;8.57;;
13868;SDS011;7004;48.206;16.402;2022-12-07T15:23:00;11.47;;;8.37;;
13868;SDS011;7004;48.206;16.402;2022-12-07T15:25:27;12.13;;;8.97;;
13868;SDS011;7004;48.206;16.402;2022-12-07T15:27:53;12.20;;;8.90;;
13868;SDS011;7004;48.206;16.402;2022-12-07T15:30:19;13.07;;;8.93;;
13868;SDS011;7004;48.206;16.402;2022-12-07T15:32:48;12.83;;;9.73;;
13868;SDS011;7004;48.206;16.402;2022-12-07T15:35:16;12.07;;;9.13;;
13868;SDS011;7004;48.206;16.402;2022-12-07T15:37:42;13.13;;;8.83;;
13868;SDS011;7004;48.206;16.402;2022-12-07T15:40:08;11.43;;;9.43;;
13868;SDS011;7004;48.206;16.402;2022-12-07T15:42:35;12.77;;;10.13;;
13868;SDS011;7004;48.206;16.402;2022-12-07T15:45:02;11.70;;;9.30;;
13868;SDS011;7004;48.206;16.402;2022-12-07T15:47:34;11.67;;;9.17;;
13868;SDS011;7004;48.206;16.402;2022-12-07T15:50:03;14.47;;;9.83;;
13868;SDS011;7004;48.206;16.402;2022-12-07T15:52:31;12.73;;;10.13;;
13868;SDS011;7004;48.206;16.402;2022-12-07T15:54:58;13.03;;;9.87;;
13868;SDS011;7004;48.206;16.402;2022-12-07T15:57:31;14.77;;;9.57;;
13868;SDS011;7004;48.206;16.402;2022-12-07T15:59:58;12.13;;;9.10;;
13868;SDS011;7004;48.206;16.402;2022-12-07T16:02:25;16.63;;;11.30;;
13868;SDS011;7004;48.206;16.402;2022-12-07T16:04:51;13.77;;;11.03;;
13868;SDS011;7004;48.206;16.402;2022-12-07T16:07:18;12.80;;;9.87;;
13868;SDS011;7004;48.206;16.402;2022-12-07T16:09:45;14.47;;;11.07;;
13868;SDS011;7004;48.206;16.402;2022-12-07T16:12:12;13.53;;;11.00;;
13868;SDS011;7004;48.206;16.402;2022-12-07T16:14:39;15.23;;;11.80;;
13868;SDS011;7004;48.206;16.402;2022-12-07T16:17:07;15.27;;;10.83;;
13868;SDS011;7004;48.206;16.402;2022-12-07T16:19:35;12.73;;;10.00;;
13868;SDS011;7004;48.206;16.402;2022-12-07T16:22:02;15.13;;;10.93;;
13868;SDS011;7004;48.206;16.402;2022-12-07T16:24:29;14.57;;;9.60;;
13868;SDS011;7004;48.206;16.402;2022-12-07T16:26:57;14.03;;;10.47;;
13868;SDS011;7004;48.206;16.402;2022-12-07T16:29:23;12.83;;;10.20;;
13868;SDS011;7004;48.206;16.402;2022-12-07T16:31:50;15.03;;;10.90;;
13868;SDS011;7004;48.206;16.402;2022-12-07T16:34:17;14.30;;;10.23;;
13868;SDS011;7004;48.206;16.402;2022-12-07T16:36:44;15.97;;;9.80;;
13868;SDS011;7004;48.206;16.402;2022-12-07T16:39:11;13.53;;;9.63;;
13868;SDS011;7004;48.206;16.402;2022-12-07T16:41:37;14.03;;;10.50;;
13868;SDS011;7004;48.206;16.402;2022-12-07T16:44:04;13.30;;;10.47;;
13868;SDS011;7004;48.206;16.402;2022-12-07T16:46:33;16.13;;;10.00;;
13868;SDS011;7004;48.206;16.402;2022-12-07T16:49:00;17.83;;;10.70;;
13868;SDS011;7004;48.206;16.402;2022-12-07T16:51:27;14.80;;;10.00;;
13868;SDS011;7004;48.206;16.402;2022-12-07T16:53:54;13.27;;;10.40;;
13868;SDS011;7004;48.206;16.402;2022-12-07T16:56:21;17.43;;;10.80;;
13868;SDS011;7004;48.206;16.402;2022-12-07T16:58:47;14.63;;;10.07;;
13868;SDS011;7004;48.206;16.402;2022-12-07T17:01:18;15.50;;;10.93;;
13868;SDS011;7004;48.206;16.402;2022-12-07T17:03:47;15.00;;;9.90;;
13868;SDS011;7004;48.206;16.402;2022-12-07T17:06:16;14.27;;;10.73;;
13868;SDS011;7004;48.206;16.402;2022-12-07T17:08:47;17.03;;;10.27;;
13868;SDS011;7004;48.206;16.402;2022-12-07T17:11:22;13.77;;;10.13;;
13868;SDS011;7004;48.206;16.402;2022-12-07T17:13:54;16.60;;;10.83;;
13868;SDS011;7004;48.206;16.402;2022-12-07T17:16:38;14.93;;;10.13;;
13868;SDS011;7004;48.206;16.402;2022-12-07T17:19:06;14.37;;;10.73;;
13868;SDS011;7004;48.206;16.402;2022-12-07T17:21:34;15.67;;;9.90;;
13868;SDS011;7004;48.206;16.402;2022-12-07T17:24:01;15.37;;;10.73;;
13868;SDS011;7004;48.206;16.402;2022-12-07T17:26:30;17.00;;;12.07;;
13868;SDS011;7004;48.206;16.402;2022-12-07T17:28:57;12.97;;;10.10;;
13868;SDS011;7004;48.206;16.402;2022-12-07T17:31:24;13.30;;;9.97;;
13868;SDS011;7004;48.206;16.402;2022-12-07T17:33:57;13.83;;;10.03;;
13868;SDS011;7004;48.206;16.402;2022-12-07T17:36:25;14.33;;;10.67;;
13868;SDS011;7004;48.206;16.402;2022-12-07T17:38:55;15.90;;;11.20;;
13868;SDS011;7004;48.206;16.402;2022-12-07T17:41:23;13.50;;;11.30;;
13868;SDS011;7004;48.206;16.402;2022-12-07T17:44:30;15.57;;;11.23;;
13868;SDS011;7004;48.206;16.402;2022-12-07T17:46:56;21.77;;;11.53;;
13868;SDS011;7004;48.206;16.402;2022-12-07T17:49:24;15.43;;;11.13;;